Latest Weather Observations for St Helens

IDT60801

Issued at 8:32 pm EST Sunday 25 June 2017 (issued every 30 minutes, with the page automatically refreshed every 10 minutes)

About weather observations | Map of weather stations | Latest weather observations for TAS | Other Formats
Station Details ID: 092120 Name: ST HELENS AERODROME Lat: -41.34 Lon: 148.28 Height: 48.0 m
Data from the previous 72 hours. | See also: Recent months at St Helens
Date/Time
EST
Temp
°C
App
Temp
°C
Dew
Point
°C
Rel
Hum
%
Delta-T
°C
Wind Press
QNH
hPa
Press
MSL
hPa
Rain since
9am
mm
Dir  Spd
km/h
Gust
km/h
Spd
kts
Gust
kts
25/08:30pm 7.9 5.5 5.4 84 1.1 WSW 7 9 4 5 1008.3 - 0.0
25/08:00pm 7.8 5.6 6.1 89 0.8 NNW 7 9 4 5 1007.8 - 0.0
25/07:30pm 8.4 5.7 5.7 83 1.2 WNW 9 13 5 7 1007.1 - 0.0
25/07:00pm 9.0 6.4 5.9 81 1.4 W 9 15 5 8 1006.3 - 0.0
25/06:30pm 8.2 5.5 5.7 84 1.1 WSW 9 15 5 8 1006.0 - 0.0
25/06:00pm 9.2 6.6 5.9 80 1.5 WNW 9 15 5 8 1005.5 1005.7 0.0
25/05:30pm 9.6 6.2 6.1 79 1.6 NW 13 19 7 10 1005.1 - 0.0
25/05:00pm 9.9 6.6 6.2 78 1.7 W 13 24 7 13 1004.4 - 0.0
25/04:30pm 10.5 6.4 6.3 75 2.0 NW 17 24 9 13 1003.9 - 0.0
25/04:00pm 11.4 7.8 6.7 73 2.2 NW 15 20 8 11 1003.9 - 0.0
25/03:30pm 11.6 8.5 7.3 75 2.1 W 13 24 7 13 1003.6 - 0.0
25/03:00pm 11.1 7.2 7.0 76 2.0 W 17 32 9 17 1004.0 1004.1 0.0
25/02:30pm 11.7 7.2 6.2 69 2.6 W 19 33 10 18 1003.7 - 0.0
25/02:00pm 12.2 6.0 6.0 66 2.9 WNW 28 43 15 23 1003.8 - 0.0
25/01:30pm 11.9 7.2 6.2 68 2.7 WNW 20 41 11 22 1004.5 - 0.0
25/01:00pm 11.8 6.4 6.3 69 2.6 W 24 46 13 25 1004.5 - 0.0
25/12:30pm 12.0 7.8 5.6 65 3.0 W 17 28 9 15 1004.9 - 0.0
25/12:00pm 12.2 7.6 6.3 67 2.8 W 20 39 11 21 1005.5 1005.6 0.0
25/11:30am 11.2 5.9 6.9 75 2.0 WNW 24 39 13 21 1006.0 - 0.0
25/11:14am 11.5 5.3 6.2 70 2.5 WNW 28 48 15 26 1005.9 - 0.0
25/11:00am 11.4 5.2 6.3 71 2.4 WNW 28 44 15 24 1006.1 - 0.0
25/10:45am 11.4 5.1 5.5 67 2.7 WNW 28 52 15 28 1006.3 - 0.0
25/10:30am 11.3 6.2 6.2 71 2.4 W 22 41 12 22 1006.4 - 0.0
25/10:00am 10.9 6.4 6.3 73 2.2 WNW 19 32 10 17 1007.1 - 0.0
25/09:30am 9.8 6.5 6.5 80 1.5 N 13 19 7 10 1007.4 - 0.0
25/09:00am 9.6 6.3 6.5 81 1.4 N 13 20 7 11 1007.9 1008.0 0.0
25/08:30am 9.2 6.2 6.1 81 1.4 N 11 19 6 10 1008.0 - 0.0
25/08:00am 9.3 6.3 6.0 80 1.5 NNW 11 19 6 10 1008.2 - 0.0
25/07:30am 9.5 5.7 5.7 77 1.7 NNW 15 24 8 13 1008.1 - 0.0
25/07:00am 9.5 6.0 5.5 76 1.8 NNW 13 24 7 13 1007.9 - 0.0
25/06:30am 9.5 5.9 5.1 74 2.0 NNW 13 20 7 11 1008.0 - 0.0
25/06:00am 9.5 5.6 5.3 75 1.9 NW 15 24 8 13 1008.0 1008.1 0.0
25/05:30am 9.5 5.9 4.9 73 2.1 NW 13 20 7 11 1008.0 - 0.0
25/05:00am 9.0 6.1 4.6 74 2.0 WNW 9 15 5 8 1008.1 - 0.0
25/04:30am 9.1 5.0 4.1 71 2.2 WNW 15 20 8 11 1008.2 - 0.0
25/04:00am 9.5 5.3 3.7 67 2.5 WNW 15 24 8 13 1008.7 - 0.0
25/03:30am 9.3 4.3 3.7 68 2.4 NW 19 26 10 14 1009.0 - 0.0
25/03:00am 8.3 5.6 3.8 73 2.0 WSW 7 11 4 6 1009.3 1009.3 0.0
25/02:30am 8.6 5.0 3.0 68 2.4 W 11 17 6 9 1009.3 - 0.0
25/02:00am 8.7 3.9 2.7 66 2.5 W 17 28 9 15 1009.5 - 0.0
25/01:30am 8.6 3.8 2.6 66 2.5 W 17 26 9 14 1009.7 - 0.0
25/01:00am 8.5 4.1 2.9 68 2.4 WNW 15 24 8 13 1010.0 - 0.0
25/12:30am 8.1 4.9 3.2 71 2.1 W 9 17 5 9 1010.2 - 0.0
25/12:00am 8.3 4.2 2.3 66 2.5 NW 13 22 7 12 1010.5 1010.5 0.0
 
Date/Time
EST
Temp
°C
App
Temp
°C
Dew
Point
°C
Rel
Hum
%
Delta-T
°C
Wind Press
QNH
hPa
Press
MSL
hPa
Rain since
9am
mm
Dir  Spd
km/h
Gust
km/h
Spd
kts
Gust
kts
24/11:30pm 7.9 4.7 2.8 70 2.1 NNW 9 15 5 8 1010.8 - 0.0
24/11:00pm 7.3 4.1 2.8 73 1.9 NNW 9 13 5 7 1011.1 - 0.0
24/10:30pm 7.0 3.8 3.3 77 1.6 NW 9 15 5 8 1011.4 - 0.0
24/10:00pm 6.3 4.7 4.3 87 0.9 NNW 2 6 1 3 1011.5 - 0.0
24/09:30pm 6.5 4.5 4.3 86 0.9 N 4 7 2 4 1011.4 - 0.0
24/09:00pm 6.0 3.6 4.5 90 0.6 N 6 9 3 5 1011.6 1011.6 0.0
24/08:30pm 6.3 4.7 4.6 89 0.7 N 2 7 1 4 1011.7 - 0.0
24/08:00pm 6.5 4.1 4.2 85 1.0 NW 6 7 3 4 1011.8 - 0.0
24/07:30pm 6.3 4.7 4.6 89 0.7 NW 2 7 1 4 1011.8 - 0.0
24/07:00pm 6.6 4.2 4.4 86 1.0 N 6 7 3 4 1011.7 - 0.0
24/06:30pm 6.3 5.1 4.5 88 0.8 CALM 0 0 0 0 1011.7 - 0.0
24/06:00pm 6.9 4.6 4.6 85 1.0 N 6 7 3 4 1011.6 1011.6 0.0
24/05:30pm 7.2 5.2 4.5 83 1.2 N 4 7 2 4 1011.4 - 0.0
24/05:00pm 7.6 5.1 3.5 75 1.8 N 6 7 3 4 1011.3 - 0.0
24/04:30pm 8.5 6.7 3.4 70 2.2 WNW 2 7 1 4 1011.2 - 0.0
24/04:00pm 8.6 5.8 3.0 68 2.4 N 7 9 4 5 1011.1 - 0.0
24/03:30pm 8.8 5.9 1.7 61 2.9 N 6 9 3 5 1011.1 - 0.0
24/03:00pm 9.4 6.0 2.0 60 3.1 NNW 9 11 5 6 1010.9 1010.9 0.0
24/02:30pm 10.0 6.2 1.9 57 3.4 WNW 11 19 6 10 1010.8 - 0.0
24/02:00pm 9.7 6.1 0.9 54 3.6 W 9 17 5 9 1010.9 - 0.0
24/01:30pm 9.8 6.2 0.4 52 3.8 WNW 9 17 5 9 1011.1 - 0.0
24/01:00pm 9.8 6.2 0.7 53 3.7 W 9 17 5 9 1011.4 - 0.0
24/12:30pm 9.4 5.3 0.1 52 3.7 NW 11 19 6 10 1011.6 - 0.0
24/12:00pm 9.9 6.1 -0.9 47 4.3 W 9 17 5 9 1011.8 1011.8 0.0
24/11:30am 9.9 5.4 -0.6 48 4.2 WNW 13 22 7 12 1012.3 - 0.0
24/11:00am 9.3 5.2 0.0 52 3.7 WNW 11 17 6 9 1012.7 - 0.0
24/10:30am 8.1 4.8 0.3 58 3.1 W 7 13 4 7 1012.9 - 0.0
24/10:00am 6.9 3.5 -0.3 60 2.8 WNW 7 13 4 7 1013.0 - 0.0
24/09:30am 5.7 2.2 -1.2 61 2.6 W 7 11 4 6 1013.0 - 0.0
24/09:00am 4.2 0.8 -0.8 70 1.9 WNW 7 11 4 6 1012.8 1012.8 0.2
24/08:30am 3.3 -0.6 -1.4 71 1.7 N 9 13 5 7 1012.5 - 0.2
24/08:00am 3.1 -1.2 -1.6 71 1.7 NW 11 15 6 8 1012.1 - 0.2
24/07:30am 3.1 -0.9 -2.0 69 1.8 NNW 9 11 5 6 1011.9 - 0.2
24/07:00am 3.5 -0.9 -2.4 65 2.1 W 11 17 6 9 1011.6 - 0.2
24/06:30am 3.8 -1.0 -2.2 65 2.1 WSW 13 17 7 9 1010.9 - 0.2
24/06:00am 3.5 -0.8 -1.4 70 1.8 WSW 11 20 6 11 1010.7 1010.8 0.2
24/05:30am 4.7 -0.6 -3.8 54 2.9 SW 15 22 8 12 1010.8 - 0.2
24/05:00am 4.5 -1.1 -3.0 58 2.6 SW 17 26 9 14 1010.3 - 0.2
24/04:30am 3.7 -0.6 -1.6 68 1.9 WSW 11 17 6 9 1010.0 - 0.2
24/04:00am 4.2 0.4 -0.4 72 1.7 W 9 13 5 7 1009.7 - 0.2
24/03:30am 5.8 0.6 -3.0 53 3.1 SSW 15 32 8 17 1009.7 - 0.2
24/03:00am 5.5 0.4 -1.9 59 2.7 SW 15 28 8 15 1009.4 1009.4 0.2
24/02:30am 5.8 0.0 -1.6 59 2.7 SSW 19 30 10 16 1009.3 - 0.2
24/02:00am 6.1 0.2 -2.0 56 3.0 SW 19 32 10 17 1008.3 - 0.2
24/01:30am 5.8 0.7 -2.0 57 2.9 SW 15 20 8 11 1008.0 - 0.2
24/01:00am 6.3 1.2 -1.8 56 3.0 SW 15 20 8 11 1007.8 - 0.2
24/12:30am 6.8 1.8 -1.3 56 3.1 WSW 15 24 8 13 1006.9 - 0.2
24/12:00am 7.0 1.9 -1.7 54 3.3 SW 15 26 8 14 1006.8 1006.9 0.2
 
Date/Time
EST
Temp
°C
App
Temp
°C
Dew
Point
°C
Rel
Hum
%
Delta-T
°C
Wind Press
QNH
hPa
Press
MSL
hPa
Rain since
9am
mm
Dir  Spd
km/h
Gust
km/h
Spd
kts
Gust
kts
23/11:30pm 7.0 1.6 -1.4 55 3.2 SW 17 28 9 15 1006.6 - 0.2
23/11:00pm 6.9 2.9 0.8 65 2.4 SSW 11 20 6 11 1006.2 - 0.2
23/10:30pm 7.9 3.8 2.0 66 2.4 SSW 13 20 7 11 1005.7 - 0.2
23/10:00pm 8.2 5.0 3.3 71 2.1 SSW 9 15 5 8 1005.0 - 0.2
23/09:30pm 9.0 5.6 3.8 70 2.3 SSW 11 17 6 9 1004.4 - 0.2
23/09:00pm 9.8 7.7 6.0 77 1.8 NW 6 11 3 6 1003.9 1004.0 0.2
23/08:30pm 10.1 7.1 5.9 75 1.9 NNW 11 13 6 7 1003.4 - 0.2
23/08:00pm 10.4 7.1 6.4 76 1.9 NW 13 17 7 9 1002.8 - 0.2
23/07:30pm 11.0 7.4 6.6 74 2.1 NW 15 20 8 11 1002.5 - 0.2
23/07:00pm 11.4 8.0 7.7 78 1.8 NW 15 20 8 11 1002.0 - 0.2
23/06:30pm 11.8 8.8 7.9 77 1.9 NNW 13 20 7 11 1001.5 - 0.2
23/06:00pm 12.1 8.0 8.0 76 2.0 WNW 19 35 10 19 1002.0 1002.2 0.2
23/05:30pm 12.0 8.2 7.5 74 2.2 WNW 17 26 9 14 1002.0 - 0.2
23/05:00pm 11.5 8.8 8.9 84 1.3 W 13 28 7 15 1002.3 - 0.2
23/04:30pm 11.1 8.0 8.8 86 1.1 NNW 15 20 8 11 1002.7 - 0.2
23/04:00pm 12.4 7.9 7.1 70 2.6 NNW 20 39 11 21 1003.3 - 0.0
23/03:30pm 12.4 7.5 6.9 69 2.6 NW 22 43 12 23 1003.5 - 0.0
23/03:00pm 12.5 6.3 6.3 66 3.0 WNW 28 50 15 27 1003.5 1003.6 0.0
23/02:32pm 12.6 6.5 6.4 66 3.0 W 28 50 15 27 1003.8 - 0.0
23/02:30pm 12.8 7.1 6.6 66 3.0 W 26 52 14 28 1003.8 - 0.0
23/02:02pm 13.5 7.4 6.6 63 3.3 WNW 28 48 15 26 1003.8 - 0.0
23/02:00pm 13.7 8.0 6.6 62 3.4 WNW 26 48 14 26 1003.9 - 0.0
23/01:30pm 14.1 8.0 6.7 61 3.6 W 28 57 15 31 1004.2 - 0.0
23/01:13pm 14.4 8.3 6.5 59 3.8 WNW 28 65 15 35 1004.9 - 0.0
23/01:00pm 14.8 9.5 6.6 58 4.0 WNW 24 41 13 22 1005.3 - 0.0
23/12:30pm 14.9 9.9 6.5 57 4.1 WNW 22 39 12 21 1006.3 - 0.0
23/12:03pm 14.4 8.3 6.5 59 3.8 NW 28 46 15 25 1006.8 - 0.0
23/12:00pm 14.4 8.7 6.7 60 3.8 NW 26 48 14 26 1006.9 1007.0 0.0
23/11:41am 14.2 8.1 6.6 60 3.7 WNW 28 46 15 25 1007.5 - 0.0
23/11:30am 14.2 9.8 7.3 63 3.4 W 20 41 11 22 1008.0 - 0.0
23/11:00am 13.1 8.8 8.0 71 2.5 NW 20 32 11 17 1009.2 - 0.0
23/10:30am 13.8 8.7 7.6 66 3.1 WNW 24 46 13 25 1009.8 - 0.0
23/10:00am 12.5 9.5 7.6 72 2.4 W 13 24 7 13 1010.5 - 0.0
23/09:30am 12.7 8.2 7.0 68 2.8 W 20 37 11 20 1010.7 - 0.0
23/09:00am 12.9 7.6 6.7 66 3.0 W 24 41 13 22 1010.9 1011.0 0.0
23/08:38am 13.4 7.4 7.2 66 3.0 WNW 28 52 15 28 1010.7 - 0.0
23/08:30am 13.2 8.4 7.4 68 2.8 WNW 22 39 12 21 1010.8 - 0.0
23/08:00am 13.2 7.6 7.0 66 3.0 W 26 50 14 27 1010.8 - 0.0
23/07:34am 13.3 7.6 8.2 71 2.5 WNW 28 52 15 28 1010.9 - 0.0
23/07:30am 13.1 8.1 8.2 72 2.4 WNW 24 39 13 21 1011.0 - 0.0
23/07:00am 13.0 8.9 8.5 74 2.2 W 20 43 11 23 1010.9 - 0.0
23/06:30am 12.8 8.7 8.5 75 2.1 W 20 35 11 19 1011.1 - 0.0
23/06:00am 12.6 8.7 8.7 77 2.0 WNW 19 35 10 19 1011.4 1011.4 0.0
23/05:30am 11.2 8.7 8.2 82 1.5 NNW 11 19 6 10 1011.9 - 0.0
23/05:00am 10.6 8.5 8.4 86 1.1 ENE 9 15 5 8 1012.4 - 0.0
23/04:30am 10.2 7.8 8.5 89 0.8 NNE 11 15 6 8 1012.9 - 0.0
23/04:00am 10.0 7.2 8.4 90 0.8 N 13 20 7 11 1013.5 - 0.0
23/03:30am 10.0 6.3 8.1 88 0.9 N 17 24 9 13 1013.9 - 0.0
23/03:00am 9.9 6.9 7.5 85 1.1 N 13 26 7 14 1014.6 1014.6 0.0
23/02:30am 10.4 7.6 6.9 79 1.7 NW 11 19 6 10 1015.0 - 0.0
23/02:00am 9.6 6.9 7.2 85 1.1 N 11 17 6 9 1015.5 - 0.0
23/01:30am 9.6 6.4 7.0 84 1.2 N 13 22 7 12 1016.0 - 0.0
23/01:00am 10.1 6.8 6.6 79 1.6 N 13 20 7 11 1016.3 - 0.0
23/12:30am 9.7 6.4 6.4 80 1.5 NNW 13 20 7 11 1016.6 - 0.0
23/12:00am 9.4 6.2 6.7 83 1.3 NNW 13 15 7 8 1017.1 1017.2 0.0
 
Date/Time
EST
Temp
°C
App
Temp
°C
Dew
Point
°C
Rel
Hum
%
Delta-T
°C
Wind Press
QNH
hPa
Press
MSL
hPa
Rain since
9am
mm
Dir  Spd
km/h
Gust
km/h
Spd
kts
Gust
kts
22/11:30pm 9.7 6.4 6.2 79 1.6 NNW 13 20 7 11 1017.6 - 0.0
22/11:00pm 8.9 5.5 5.8 81 1.4 NNW 13 17 7 9 1018.0 - 0.0
22/10:30pm 6.5 3.9 4.0 84 1.1 NW 7 11 4 6 1018.6 - 0.0
22/10:00pm 7.5 4.6 4.8 83 1.2 N 9 15 5 8 1018.8 - 0.0
22/09:30pm 7.6 4.7 4.6 81 1.3 N 9 13 5 7 1019.3 - 0.0
22/09:00pm 7.9 4.5 4.1 77 1.6 NNW 11 19 6 10 1019.3 1019.4 0.0

Other Formats:

Comma delimited format used in spreadsheet applications
http://www.bom.gov.au/fwo/IDT60801/IDT60801.95981.axf

JavaScript Object Notation format (JSON) in row-major order
http://www.bom.gov.au/fwo/IDT60801/IDT60801.95981.json